Time;durP1;ratioP1;P1;durP2;ratioP2;P2;SDS_P1;SDS_P2;PMS_P1;PMS_P2;Temp;Humidity;BMP_temperature;BMP_pressure;BME280_temperature;BME280_humidity;BME280_pressure;Samples;Min_cycle;Max_cycle;Signal;HPM_P1;HPM_P2
2021/12/27 00:01:06;;;;;;;51.65;33.45;;;9.90;99.90;;;;;;5030547;28;20028;-73
2021/12/27 00:04:10;;;;;;;55.38;34.25;;;9.90;99.90;;;;;;5029727;28;20159;-73
2021/12/27 00:07:15;;;;;;;49.35;31.42;;;9.90;99.90;;;;;;5030473;28;20491;-74
2021/12/27 00:10:21;;;;;;;59.80;37.00;;;9.90;99.90;;;;;;5029992;28;20105;-73
2021/12/27 00:13:25;;;;;;;57.97;35.58;;;9.90;99.90;;;;;;5030270;28;20048;-73
2021/12/27 00:16:29;;;;;;;44.20;29.85;;;9.80;99.90;;;;;;5030501;28;20041;-73
2021/12/27 00:19:33;;;;;;;41.42;28.20;;;9.80;99.90;;;;;;5029868;28;20064;-73
2021/12/27 00:22:38;;;;;;;41.20;27.00;;;9.80;99.90;;;;;;5029252;28;20044;-73
2021/12/27 00:25:42;;;;;;;44.28;29.33;;;9.80;99.90;;;;;;5030268;28;20412;-73
2021/12/27 00:28:46;;;;;;;37.90;26.02;;;9.80;99.90;;;;;;5029864;28;20523;-73
2021/12/27 00:31:52;;;;;;;39.03;26.83;;;9.80;99.90;;;;;;5029861;28;20048;-73
2021/12/27 00:34:56;;;;;;;38.88;25.15;;;9.80;99.90;;;;;;5029828;28;20060;-73
2021/12/27 00:38:02;;;;;;;42.83;27.10;;;9.80;99.90;;;;;;5030220;28;20044;-73
2021/12/27 00:41:07;;;;;;;41.35;25.52;;;9.80;99.90;;;;;;5030099;28;20042;-73
2021/12/27 00:44:10;;;;;;;44.38;26.88;;;9.80;99.90;;;;;;5030135;28;20060;-73
2021/12/27 00:47:14;;;;;;;211.95;38.72;;;9.70;99.90;;;;;;5029875;28;20056;-73
2021/12/27 00:50:19;;;;;;;765.15;74.82;;;9.60;99.90;;;;;;5029593;28;20436;-72
2021/12/27 00:53:42;;;;;;;57.83;31.60;;;9.50;99.90;;;;;;5029607;28;20056;-73
2021/12/27 00:56:46;;;;;;;63.90;33.70;;;9.50;99.90;;;;;;5029716;28;20495;-73
2021/12/27 00:59:50;;;;;;;59.25;34.38;;;9.60;99.90;;;;;;5029283;28;20041;-73
2021/12/27 01:02:55;;;;;;;66.28;34.28;;;9.60;99.90;;;;;;5029800;28;20048;-73
2021/12/27 01:05:59;;;;;;;116.65;34.22;;;9.70;99.90;;;;;;5029905;28;20048;-73
2021/12/27 01:09:04;;;;;;;184.82;37.92;;;9.70;99.90;;;;;;5029334;28;20037;-73
2021/12/27 01:12:24;;;;;;;280.55;41.58;;;9.70;99.90;;;;;;5029815;28;20400;-73
2021/12/27 01:18:39;;;;;;;46.53;29.38;;;9.70;99.90;;;;;;5033528;28;20040;-73
2021/12/27 01:21:43;;;;;;;50.22;29.55;;;9.70;99.90;;;;;;5033992;28;20045;-73
2021/12/27 01:24:47;;;;;;;47.65;28.42;;;9.60;99.90;;;;;;5033992;28;20056;-73
2021/12/27 01:27:52;;;;;;;46.05;27.42;;;9.60;99.90;;;;;;5033668;28;20765;-73
2021/12/27 01:30:57;;;;;;;43.55;25.88;;;9.60;99.90;;;;;;5034000;28;20053;-73
2021/12/27 01:34:01;;;;;;;42.92;26.05;;;9.60;99.90;;;;;;5033377;28;20049;-73
2021/12/27 01:37:06;;;;;;;42.08;26.27;;;9.70;99.90;;;;;;5033728;28;20048;-73
2021/12/27 01:40:13;;;;;;;39.78;24.67;;;9.70;99.90;;;;;;5032923;28;20048;-73
2021/12/27 01:43:22;;;;;;;50.60;29.80;;;9.70;99.90;;;;;;5033487;28;20495;-73
2021/12/27 01:46:29;;;;;;;344.33;42.10;;;9.60;99.90;;;;;;5033078;28;20045;-73
2021/12/27 01:49:33;;;;;;;220.93;39.30;;;9.50;99.90;;;;;;5033131;28;20052;-73
2021/12/27 01:52:37;;;;;;;247.15;37.40;;;9.40;99.90;;;;;;5033165;28;20056;-73
2021/12/27 01:55:41;;;;;;;1160.47;87.28;;;9.40;99.90;;;;;;5033113;28;20401;-73
2021/12/27 01:58:45;;;;;;;1136.70;87.07;;;9.30;99.90;;;;;;5033082;28;20052;-72
2021/12/27 02:01:50;;;;;;;1137.30;92.82;;;9.10;99.90;;;;;;5033460;28;20072;-72
2021/12/27 02:04:54;;;;;;;1141.57;103.70;;;9.00;99.90;;;;;;5033204;28;20491;-73
2021/12/27 02:07:59;;;;;;;505.02;58.05;;;9.10;99.90;;;;;;5032920;28;20052;-73
2021/12/27 02:11:04;;;;;;;711.90;63.85;;;9.20;99.90;;;;;;5032967;28;20404;-73
2021/12/27 02:14:09;;;;;;;588.42;64.10;;;9.20;99.90;;;;;;5032645;28;20053;-73
2021/12/27 02:17:18;;;;;;;169.85;32.42;;;9.30;99.90;;;;;;5033108;28;20044;-73
2021/12/27 02:20:25;;;;;;;951.60;77.03;;;9.40;99.90;;;;;;5032820;28;20388;-73
2021/12/27 02:23:29;;;;;;;913.92;67.55;;;9.20;99.90;;;;;;5031858;28;20053;-72
2021/12/27 02:26:32;;;;;;;415.42;43.55;;;9.20;99.90;;;;;;5032786;28;20049;-73
2021/12/27 02:29:36;;;;;;;99.95;27.75;;;9.20;99.90;;;;;;5031606;28;20037;-73
2021/12/27 02:32:48;;;;;;;105.10;29.15;;;9.20;99.90;;;;;;5032582;28;20637;-73
2021/12/27 02:35:58;;;;;;;167.43;32.45;;;9.30;99.90;;;;;;5032316;28;20036;-72
2021/12/27 02:39:03;;;;;;;45.00;21.60;;;9.40;99.90;;;;;;5031984;28;20040;-73
2021/12/27 02:42:07;;;;;;;385.98;42.60;;;9.40;99.90;;;;;;5032181;28;20408;-73
2021/12/27 02:45:11;;;;;;;336.33;43.63;;;9.50;99.90;;;;;;5032113;28;20052;-73
2021/12/27 02:48:17;;;;;;;256.02;37.88;;;9.60;99.90;;;;;;5031786;28;20554;-73
2021/12/27 02:51:21;;;;;;;457.08;45.88;;;9.60;99.90;;;;;;5032322;28;20393;-73
2021/12/27 02:54:27;;;;;;;130.98;30.30;;;9.60;99.90;;;;;;5031690;28;20052;-73
2021/12/27 02:57:31;;;;;;;322.33;37.42;;;9.60;99.90;;;;;;5031906;28;20041;-73
2021/12/27 03:00:45;;;;;;;103.47;27.65;;;9.70;99.90;;;;;;5032018;28;20495;-73
2021/12/27 03:03:49;;;;;;;176.10;29.35;;;9.70;99.90;;;;;;5031615;28;20037;-73
2021/12/27 03:06:52;;;;;;;326.70;36.72;;;9.70;99.90;;;;;;5031915;28;20048;-73
2021/12/27 03:09:58;;;;;;;362.60;36.17;;;9.70;99.90;;;;;;5031374;28;20338;-73
2021/12/27 03:13:03;;;;;;;172.57;28.05;;;9.70;99.90;;;;;;5031646;28;20040;-73
2021/12/27 03:16:11;;;;;;;368.98;35.55;;;9.70;99.90;;;;;;5031429;28;20044;-73
2021/12/27 03:19:16;;;;;;;151.13;24.98;;;9.60;99.90;;;;;;5031284;28;20044;-73
2021/12/27 03:22:21;;;;;;;195.15;25.98;;;9.70;99.90;;;;;;5031394;28;20053;-73
2021/12/27 03:25:26;;;;;;;111.70;25.50;;;9.60;99.90;;;;;;5031277;28;20048;-73
2021/12/27 03:28:30;;;;;;;145.18;27.77;;;9.60;99.90;;;;;;5030432;28;20044;-73
2021/12/27 03:31:37;;;;;;;112.53;25.00;;;9.50;99.90;;;;;;5031317;28;20077;-73
2021/12/27 03:34:52;;;;;;;68.75;24.27;;;9.50;99.90;;;;;;5030782;28;20099;-73
2021/12/27 03:37:58;;;;;;;44.75;22.70;;;9.50;99.90;;;;;;5031004;28;20045;-72
2021/12/27 03:41:04;;;;;;;39.60;19.33;;;9.50;99.90;;;;;;5030116;28;20041;-73
2021/12/27 03:44:08;;;;;;;32.30;17.73;;;9.60;99.90;;;;;;5030388;28;20036;-73
2021/12/27 03:47:13;;;;;;;32.05;17.67;;;9.60;99.90;;;;;;5030837;28;20041;-73
2021/12/27 03:50:17;;;;;;;84.13;26.40;;;9.60;99.90;;;;;;5030282;28;20495;-73
2021/12/27 03:53:21;;;;;;;103.00;27.63;;;9.70;99.90;;;;;;5030596;28;20045;-73
2021/12/27 03:56:27;;;;;;;68.97;23.20;;;9.60;99.90;;;;;;5030755;28;20053;-73
2021/12/27 04:02:47;;;;;;;36.45;20.60;;;9.60;99.90;;;;;;5030767;28;20045;-72
2021/12/27 04:05:51;;;;;;;35.25;19.52;;;9.60;99.90;;;;;;5030084;28;20056;-73
2021/12/27 04:08:56;;;;;;;36.53;20.52;;;9.60;99.90;;;;;;5029899;28;20052;-73
2021/12/27 04:12:00;;;;;;;32.83;18.25;;;9.70;99.90;;;;;;5030310;28;20052;-73
2021/12/27 04:15:08;;;;;;;38.33;19.65;;;9.70;99.90;;;;;;5030213;28;20396;-73
2021/12/27 04:18:12;;;;;;;32.08;18.40;;;9.70;99.90;;;;;;5029095;28;20044;-73
2021/12/27 04:21:16;;;;;;;34.15;20.20;;;9.60;99.90;;;;;;5030121;28;20044;-73
2021/12/27 04:24:20;;;;;;;22.23;14.77;;;9.60;99.90;;;;;;5030006;28;20068;-73
2021/12/27 04:27:24;;;;;;;35.85;18.30;;;9.70;99.90;;;;;;5030689;28;20124;-73
2021/12/27 04:30:28;;;;;;;566.22;43.25;;;9.60;99.90;;;;;;5030243;28;20049;-72
2021/12/27 04:33:33;;;;;;;286.48;29.88;;;9.50;99.90;;;;;;5030524;28;20056;-72
2021/12/27 04:36:38;;;;;;;1091.90;82.55;;;9.30;99.90;;;;;;5030175;28;20044;-72
2021/12/27 04:39:42;;;;;;;931.92;68.47;;;9.20;99.90;;;;;;5029870;28;20231;-73
2021/12/27 04:42:55;;;;;;;762.63;62.88;;;9.10;99.90;;;;;;5030175;28;20400;-74
2021/12/27 04:45:59;;;;;;;73.68;28.55;;;9.10;99.90;;;;;;5030413;28;20056;-73
2021/12/27 04:49:03;;;;;;;395.80;42.33;;;9.20;99.90;;;;;;5029869;28;20389;-73
2021/12/27 04:52:07;;;;;;;475.05;49.38;;;9.30;99.90;;;;;;5030009;28;20056;-73
2021/12/27 04:55:10;;;;;;;871.03;63.83;;;9.30;99.90;;;;;;5030019;28;20049;-73
2021/12/27 04:58:21;;;;;;;707.80;56.75;;;9.30;99.90;;;;;;5029736;28;20040;-73
2021/12/27 05:01:26;;;;;;;108.47;28.25;;;9.30;99.90;;;;;;5030175;28;20041;-73
2021/12/27 05:04:31;;;;;;;246.13;34.78;;;9.40;99.90;;;;;;5030112;28;20049;-73
2021/12/27 05:07:35;;;;;;;71.07;26.00;;;9.40;99.90;;;;;;5030262;28;20040;-73
2021/12/27 05:10:40;;;;;;;191.77;33.60;;;9.50;99.90;;;;;;5030060;28;20072;-73
2021/12/27 05:13:44;;;;;;;79.35;27.02;;;9.50;99.90;;;;;;5030232;28;20060;-73
2021/12/27 05:16:48;;;;;;;255.30;32.63;;;9.50;99.90;;;;;;5029853;28;20495;-73
2021/12/27 05:19:53;;;;;;;115.53;29.95;;;9.50;99.90;;;;;;5029645;28;20052;-73
2021/12/27 05:22:58;;;;;;;116.40;27.33;;;9.50;99.90;;;;;;5029388;28;20053;-73
2021/12/27 05:26:02;;;;;;;182.60;29.75;;;9.50;99.90;;;;;;5029364;28;20056;-73
2021/12/27 05:29:06;;;;;;;337.58;35.50;;;9.50;99.90;;;;;;5029491;28;20057;-73
2021/12/27 05:32:09;;;;;;;227.27;29.90;;;9.50;99.90;;;;;;5029406;28;20503;-73
2021/12/27 05:35:15;;;;;;;117.80;24.52;;;9.40;99.90;;;;;;5030299;28;20056;-73
2021/12/27 05:38:19;;;;;;;36.55;19.60;;;9.50;99.90;;;;;;5030249;28;20032;-72
2021/12/27 05:41:24;;;;;;;841.15;65.07;;;9.50;99.90;;;;;;5030740;28;20040;-73
2021/12/27 05:44:29;;;;;;;1242.15;94.95;;;9.40;99.90;;;;;;5029940;28;20254;-72
2021/12/27 05:47:33;;;;;;;1224.43;89.82;;;9.20;99.90;;;;;;5030367;28;20056;-72
2021/12/27 05:50:38;;;;;;;720.88;65.82;;;9.10;99.90;;;;;;5029853;28;20053;-72
2021/12/27 05:53:42;;;;;;;167.55;31.98;;;9.10;99.90;;;;;;5029893;28;20048;-72
2021/12/27 05:56:48;;;;;;;472.17;50.97;;;9.10;99.90;;;;;;5030231;28;20056;-73
2021/12/27 05:59:52;;;;;;;418.52;45.50;;;9.20;99.90;;;;;;5029670;28;20060;-72
2021/12/27 06:02:56;;;;;;;206.25;31.08;;;9.30;99.90;;;;;;5030784;28;20044;-72
2021/12/27 06:06:01;;;;;;;65.53;24.73;;;9.40;99.90;;;;;;5033371;28;20056;-73
2021/12/27 06:09:06;;;;;;;41.10;21.15;;;9.40;99.90;;;;;;5032833;28;20056;-72
2021/12/27 06:12:10;;;;;;;45.72;21.55;;;9.40;99.90;;;;;;5033277;28;20500;-72
2021/12/27 06:15:14;;;;;;;50.65;21.02;;;9.40;99.90;;;;;;5033212;28;20052;-72
2021/12/27 06:18:19;;;;;;;89.43;24.00;;;9.40;99.90;;;;;;5032898;28;20044;-72
2021/12/27 06:21:23;;;;;;;336.25;34.47;;;9.40;99.90;;;;;;5032694;28;20044;-73
2021/12/27 06:24:27;;;;;;;749.88;64.43;;;9.20;99.90;;;;;;5031678;28;20049;-73
2021/12/27 06:27:32;;;;;;;1036.70;82.53;;;9.20;99.90;;;;;;5032884;28;20500;-73
2021/12/27 06:30:36;;;;;;;1048.25;84.25;;;9.10;99.90;;;;;;5032865;28;20036;-73
2021/12/27 06:33:40;;;;;;;1627.60;125.15;;;9.00;99.90;;;;;;5032809;28;20048;-72
2021/12/27 06:36:45;;;;;;;552.25;56.53;;;9.00;99.90;;;;;;5032714;28;20155;-72
2021/12/27 06:39:49;;;;;;;1179.15;96.13;;;9.00;99.90;;;;;;5032756;28;20056;-73
2021/12/27 06:42:53;;;;;;;1108.22;84.63;;;9.00;99.90;;;;;;5032205;28;20127;-73
2021/12/27 06:45:59;;;;;;;1413.43;108.55;;;8.90;99.90;;;;;;5032540;28;20052;-73
2021/12/27 06:49:03;;;;;;;1186.35;92.18;;;9.00;99.90;;;;;;5032295;28;20068;-73
2021/12/27 06:52:07;;;;;;;398.02;50.88;;;9.00;99.90;;;;;;5032320;28;20045;-73
2021/12/27 06:55:12;;;;;;;470.70;53.67;;;9.00;99.90;;;;;;5032153;28;20060;-72
2021/12/27 06:58:16;;;;;;;1110.60;86.13;;;9.00;99.90;;;;;;5032084;28;20060;-73
2021/12/27 07:01:20;;;;;;;932.40;74.63;;;9.00;99.90;;;;;;5032269;28;20044;-73
2021/12/27 07:04:23;;;;;;;202.85;37.67;;;9.00;99.90;;;;;;5032634;28;20064;-73
2021/12/27 07:07:27;;;;;;;313.77;40.00;;;9.10;99.90;;;;;;5032565;28;20483;-73
2021/12/27 07:10:32;;;;;;;129.52;34.65;;;9.10;99.90;;;;;;5030930;28;20040;-73
2021/12/27 07:13:37;;;;;;;101.57;32.28;;;9.20;99.90;;;;;;5031852;28;20303;-73
2021/12/27 07:16:40;;;;;;;141.10;30.33;;;9.20;99.90;;;;;;5031453;28;20283;-73
2021/12/27 07:19:45;;;;;;;213.85;35.13;;;9.30;99.90;;;;;;5031867;28;20048;-73
2021/12/27 07:22:50;;;;;;;583.75;47.28;;;9.30;99.90;;;;;;5031857;28;20048;-73
2021/12/27 07:25:54;;;;;;;210.57;35.47;;;9.30;99.90;;;;;;5031720;28;20420;-73
2021/12/27 07:28:58;;;;;;;90.07;25.13;;;9.30;99.90;;;;;;5031669;28;20053;-73
2021/12/27 07:32:03;;;;;;;284.08;33.33;;;9.40;99.90;;;;;;5031580;28;20052;-74
2021/12/27 07:35:09;;;;;;;182.65;28.30;;;9.40;99.90;;;;;;5031403;28;20065;-73
2021/12/27 07:38:14;;;;;;;199.32;27.60;;;9.40;99.90;;;;;;5031061;28;20706;-73
2021/12/27 07:41:18;;;;;;;34.33;18.23;;;9.40;99.90;;;;;;5031311;28;20048;-73
2021/12/27 07:44:22;;;;;;;581.50;45.33;;;9.50;99.90;;;;;;5030925;28;20045;-73
2021/12/27 07:47:26;;;;;;;110.97;21.42;;;9.50;99.90;;;;;;5031276;28;20045;-74
2021/12/27 07:50:29;;;;;;;32.30;19.05;;;9.60;99.90;;;;;;5031059;28;20061;-73
2021/12/27 07:53:34;;;;;;;496.67;40.47;;;9.70;99.90;;;;;;5030910;28;20040;-73
2021/12/27 07:56:38;;;;;;;1282.15;89.72;;;9.70;99.90;;;;;;5030850;28;20109;-73
2021/12/27 07:59:47;;;;;;;133.30;27.45;;;9.50;99.90;;;;;;5030598;28;20052;-73
2021/12/27 08:02:52;;;;;;;574.78;44.90;;;9.50;99.90;;;;;;5029913;28;20487;-73
2021/12/27 08:05:56;;;;;;;584.63;43.58;;;9.70;99.90;;;;;;5031020;28;20080;-73
2021/12/27 08:09:00;;;;;;;29.80;17.73;;;9.70;99.90;;;;;;5030336;28;20064;-73
2021/12/27 08:12:06;;;;;;;191.20;26.85;;;9.90;99.90;;;;;;5030707;28;20507;-73
2021/12/27 08:15:11;;;;;;;40.33;18.02;;;10.00;99.90;;;;;;5030695;28;20056;-73
2021/12/27 08:18:16;;;;;;;154.20;22.02;;;10.10;99.90;;;;;;5030410;28;20044;-73
2021/12/27 08:21:21;;;;;;;171.10;24.83;;;10.20;99.90;;;;;;5030286;28;20053;-73
2021/12/27 08:24:26;;;;;;;165.77;21.05;;;10.20;99.90;;;;;;5030396;28;20060;-74
2021/12/27 08:27:30;;;;;;;88.97;20.38;;;9.90;99.90;;;;;;5030331;28;20048;-73
2021/12/27 08:30:35;;;;;;;137.43;21.70;;;10.00;99.90;;;;;;5030552;28;20388;-73
2021/12/27 08:33:39;;;;;;;559.72;43.78;;;10.00;99.90;;;;;;5030231;28;20052;-73
2021/12/27 08:36:43;;;;;;;106.47;23.67;;;9.80;99.90;;;;;;5030175;28;21330;-73
2021/12/27 08:39:47;;;;;;;345.08;35.05;;;9.90;99.90;;;;;;5030364;28;20060;-73
2021/12/27 08:42:51;;;;;;;403.95;35.38;;;9.90;99.90;;;;;;5030250;28;20049;-73
2021/12/27 08:45:56;;;;;;;152.02;23.10;;;9.80;99.90;;;;;;5030387;28;20048;-73
2021/12/27 08:49:02;;;;;;;106.35;21.35;;;9.90;99.90;;;;;;5030308;28;20041;-73
2021/12/27 08:52:06;;;;;;;38.75;17.30;;;10.00;99.90;;;;;;5030172;28;20053;-73
2021/12/27 08:55:12;;;;;;;27.58;17.55;;;10.10;99.90;;;;;;5029184;28;20044;-74
2021/12/27 08:58:16;;;;;;;65.93;22.92;;;10.20;99.90;;;;;;5029816;28;20049;-73
2021/12/27 09:01:21;;;;;;;177.43;28.83;;;10.20;99.90;;;;;;5030106;28;20415;-73
2021/12/27 09:04:25;;;;;;;684.78;51.53;;;9.90;99.90;;;;;;5029939;28;20519;-73
2021/12/27 09:07:29;;;;;;;388.95;35.58;;;9.90;99.90;;;;;;5029640;28;20037;-73
2021/12/27 09:10:33;;;;;;;89.97;27.25;;;9.80;99.90;;;;;;5030036;28;20421;-73
2021/12/27 09:13:39;;;;;;;116.13;22.73;;;9.70;99.90;;;;;;5030163;28;20483;-73
2021/12/27 09:16:46;;;;;;;38.15;18.08;;;9.70;99.90;;;;;;5029780;28;20392;-73
2021/12/27 09:19:51;;;;;;;25.80;16.30;;;9.90;99.90;;;;;;5030169;28;20483;-73
2021/12/27 09:22:55;;;;;;;25.98;15.07;;;10.10;99.90;;;;;;5030429;28;20036;-73
2021/12/27 09:25:59;;;;;;;23.83;14.70;;;10.20;99.90;;;;;;5030260;28;20044;-73
2021/12/27 09:29:03;;;;;;;20.73;14.52;;;10.40;99.90;;;;;;5029491;28;20392;-73
2021/12/27 09:32:12;;;;;;;22.40;14.15;;;10.80;99.90;;;;;;5030314;28;20068;-73
2021/12/27 09:35:17;;;;;;;21.60;13.05;;;11.30;99.90;;;;;;5029759;28;20048;-73
2021/12/27 09:38:21;;;;;;;18.60;12.23;;;11.50;99.90;;;;;;5031510;28;20040;-73
2021/12/27 09:41:26;;;;;;;17.70;12.05;;;11.80;99.90;;;;;;5033839;28;20040;-74
2021/12/27 09:44:31;;;;;;;20.20;11.75;;;12.00;99.90;;;;;;5033599;28;20385;-73
2021/12/27 09:47:36;;;;;;;15.98;11.07;;;12.10;99.90;;;;;;5033208;28;20048;-73
2021/12/27 09:50:46;;;;;;;25.58;15.10;;;11.90;99.90;;;;;;5033636;28;20041;-73
2021/12/27 09:53:52;;;;;;;15.88;11.40;;;11.60;99.90;;;;;;5033155;28;20041;-73
2021/12/27 09:56:56;;;;;;;20.48;13.50;;;11.60;99.90;;;;;;5032959;28;20107;-73
2021/12/27 10:00:06;;;;;;;18.75;12.63;;;11.90;99.90;;;;;;5032913;28;20148;-73
2021/12/27 10:03:13;;;;;;;16.38;11.20;;;12.10;99.90;;;;;;5032988;28;20036;-73
2021/12/27 10:06:20;;;;;;;14.57;10.70;;;12.70;99.90;;;;;;5032962;28;20036;-73
2021/12/27 10:09:25;;;;;;;13.23;9.88;;;13.70;99.90;;;;;;5032830;28;20048;-73
2021/12/27 10:12:30;;;;;;;12.77;8.32;;;14.80;99.90;;;;;;5033523;28;20495;-74
2021/12/27 10:15:38;;;;;;;18.83;10.27;;;15.90;99.90;;;;;;5033334;28;20496;-74
2021/12/27 10:18:43;;;;;;;9.75;7.40;;;15.70;99.90;;;;;;5033052;28;20040;-74
2021/12/27 10:21:53;;;;;;;18.27;8.48;;;15.40;99.90;;;;;;5033341;28;20393;-73
2021/12/27 10:24:59;;;;;;;15.90;11.52;;;14.90;99.90;;;;;;5032975;28;20040;-73
2021/12/27 10:28:04;;;;;;;10.20;7.85;;;13.50;99.90;;;;;;5032813;28;20060;-73
2021/12/27 10:31:07;;;;;;;11.52;8.88;;;13.20;99.90;;;;;;5032954;28;20384;-73
2021/12/27 10:34:12;;;;;;;15.15;9.38;;;13.00;99.90;;;;;;5032936;28;20048;-73
2021/12/27 10:37:18;;;;;;;12.13;9.27;;;12.50;99.90;;;;;;5032545;28;20048;-73
2021/12/27 10:40:23;;;;;;;9.63;5.40;;;13.80;99.90;;;;;;5032299;28;20053;-74
2021/12/27 10:43:36;;;;;;;8.07;4.30;;;18.50;99.90;;;;;;5032667;28;20583;-74
2021/12/27 10:46:41;;;;;;;8.75;5.47;;;21.50;99.90;;;;;;5032650;28;20041;-74
2021/12/27 10:49:49;;;;;;;7.70;5.55;;;21.00;99.90;;;;;;5031405;28;20443;-74
2021/12/27 10:53:08;;;;;;;8.10;6.20;;;19.90;99.90;;;;;;5031763;28;20491;-73
2021/12/27 10:56:14;;;;;;;7.63;5.82;;;18.00;99.90;;;;;;5032758;28;20044;-73
2021/12/27 10:59:20;;;;;;;9.10;6.00;;;15.90;99.90;;;;;;5032127;28;20056;-73
2021/12/27 11:02:32;;;;;;;7.13;5.95;;;14.90;99.90;;;;;;5032391;28;20046;-74
2021/12/27 11:05:36;;;;;;;7.70;5.90;;;15.00;99.90;;;;;;5032229;28;20045;-73
2021/12/27 11:08:45;;;;;;;8.63;6.30;;;15.60;99.90;;;;;;5031261;28;20048;-73
2021/12/27 11:11:49;;;;;;;9.50;6.10;;;15.80;99.90;;;;;;5032294;28;20049;-73
2021/12/27 11:14:53;;;;;;;8.88;7.20;;;15.40;99.90;;;;;;5032195;28;20527;-73
2021/12/27 11:17:58;;;;;;;11.20;6.65;;;15.00;99.90;;;;;;5031997;28;20056;-73
2021/12/27 11:21:14;;;;;;;9.50;6.63;;;14.40;99.90;;;;;;5032028;28;20037;-73
2021/12/27 11:24:19;;;;;;;8.60;6.72;;;13.90;99.90;;;;;;5032089;28;20060;-73
2021/12/27 11:27:23;;;;;;;12.15;7.88;;;13.50;99.90;;;;;;5032119;28;20068;-73
2021/12/27 11:30:30;;;;;;;13.48;7.75;;;12.80;99.90;;;;;;5031767;28;20048;-73
2021/12/27 11:34:00;;;;;;;10.73;7.18;;;12.60;99.90;;;;;;5032032;28;20051;-73
2021/12/27 11:37:10;;;;;;;9.63;5.78;;;12.50;99.90;;;;;;5031556;28;20049;-73
2021/12/27 11:40:16;;;;;;;15.77;6.30;;;12.50;99.90;;;;;;5031318;28;20064;-73
2021/12/27 11:43:20;;;;;;;9.10;6.80;;;12.40;99.90;;;;;;5031628;28;20397;-73
2021/12/27 11:46:27;;;;;;;8.65;5.50;;;12.50;99.90;;;;;;5030072;28;20392;-73
2021/12/27 11:49:42;;;;;;;10.90;4.90;;;13.10;99.90;;;;;;5030783;28;20044;-73
2021/12/27 11:52:49;;;;;;;7.10;4.32;;;13.40;99.90;;;;;;5031940;28;20052;-73
2021/12/27 11:55:54;;;;;;;6.80;5.20;;;13.40;99.90;;;;;;5030275;28;20041;-73
2021/12/27 11:58:57;;;;;;;7.88;4.38;;;12.70;99.90;;;;;;5030812;28;20040;-73
2021/12/27 12:02:23;;;;;;;9.32;5.13;;;12.60;99.90;;;;;;5030108;28;20413;-74
2021/12/27 12:05:44;;;;;;;6.22;4.43;;;12.60;99.90;;;;;;5030889;28;20032;-73
2021/12/27 12:08:50;;;;;;;8.10;6.18;;;12.60;99.90;;;;;;5030265;28;20044;-73
2021/12/27 12:12:05;;;;;;;9.13;5.22;;;12.20;99.90;;;;;;5030495;28;20044;-73
2021/12/27 12:15:09;;;;;;;7.82;5.75;;;11.90;99.90;;;;;;5030592;28;20041;-73
2021/12/27 12:18:16;;;;;;;7.90;5.60;;;12.00;99.90;;;;;;5030147;28;20495;-72
2021/12/27 12:21:40;;;;;;;11.25;6.88;;;12.00;99.90;;;;;;5030591;28;20045;-72
2021/12/27 12:24:44;;;;;;;13.32;8.05;;;12.10;99.90;;;;;;5030575;28;20053;-73
2021/12/27 12:27:58;;;;;;;11.52;8.02;;;12.00;99.90;;;;;;5030769;28;20048;-73
2021/12/27 12:31:03;;;;;;;11.95;7.90;;;12.00;99.90;;;;;;5030882;28;20136;-72
2021/12/27 12:34:15;;;;;;;13.38;8.05;;;12.10;99.90;;;;;;5029553;28;20499;-72
2021/12/27 12:37:20;;;;;;;14.00;8.10;;;11.90;99.90;;;;;;5029975;28;20437;-72
2021/12/27 12:40:24;;;;;;;12.70;8.40;;;11.80;99.90;;;;;;5030061;28;20053;-73
2021/12/27 12:43:57;;;;;;;12.07;7.50;;;11.90;99.90;;;;;;5029678;28;20519;-73
2021/12/27 12:47:01;;;;;;;11.00;7.28;;;11.90;99.90;;;;;;5030587;28;20203;-73
2021/12/27 12:50:21;;;;;;;10.27;7.28;;;12.00;99.90;;;;;;5029122;28;20056;-72
2021/12/27 12:53:34;;;;;;;11.15;5.75;;;12.20;99.90;;;;;;5030556;28;20076;-73
2021/12/27 12:56:44;;;;;;;9.70;4.85;;;12.20;99.90;;;;;;5029971;28;20044;-73
2021/12/27 12:59:58;;;;;;;11.77;4.63;;;12.20;99.90;;;;;;5029603;28;20045;-72
2021/12/27 13:03:13;;;;;;;9.10;4.32;;;12.20;99.90;;;;;;5030251;28;20052;-73
2021/12/27 13:06:17;;;;;;;8.82;4.15;;;12.40;99.90;;;;;;5030349;28;20041;-73
2021/12/27 13:09:38;;;;;;;12.57;5.00;;;12.50;99.90;;;;;;5029720;28;20044;-73
2021/12/27 13:12:43;;;;;;;11.45;4.88;;;12.70;99.90;;;;;;5032273;28;20045;-72
2021/12/27 13:16:05;;;;;;;10.45;5.05;;;12.80;99.90;;;;;;5034324;28;20049;-73
2021/12/27 13:19:11;;;;;;;8.27;4.63;;;12.90;99.90;;;;;;5033791;28;20635;-73
2021/12/27 13:22:39;;;;;;;8.75;5.25;;;12.90;99.90;;;;;;5034175;28;20135;-73
2021/12/27 13:25:48;;;;;;;9.38;5.53;;;12.70;99.90;;;;;;5033401;28;20109;-73
2021/12/27 13:28:52;;;;;;;7.90;4.80;;;12.80;99.90;;;;;;5033181;28;20056;-73
2021/12/27 13:31:57;;;;;;;13.40;5.60;;;12.70;99.90;;;;;;5034014;28;20045;-73
2021/12/27 13:35:01;;;;;;;10.32;6.20;;;12.60;99.90;;;;;;5034203;28;20507;-73
2021/12/27 13:38:15;;;;;;;16.75;8.20;;;12.50;99.90;;;;;;5033556;28;20491;-73
2021/12/27 13:41:26;;;;;;;18.50;8.32;;;12.40;99.90;;;;;;5033508;28;20032;-73
2021/12/27 13:44:34;;;;;;;12.45;7.65;;;12.30;99.90;;;;;;5033986;28;20041;-73
2021/12/27 13:47:56;;;;;;;12.32;6.60;;;12.10;99.90;;;;;;5032939;28;20056;-73
2021/12/27 13:51:02;;;;;;;15.10;8.30;;;11.90;99.90;;;;;;5033622;28;20048;-73
2021/12/27 13:54:08;;;;;;;13.85;7.22;;;11.80;99.90;;;;;;5033530;28;20036;-74
2021/12/27 13:57:13;;;;;;;9.00;4.88;;;11.90;99.90;;;;;;5033062;28;20384;-73
2021/12/27 14:00:28;;;;;;;5.28;2.90;;;11.80;99.90;;;;;;5032833;28;20040;-73
2021/12/27 14:03:34;;;;;;;4.68;2.95;;;11.80;99.90;;;;;;5033216;28;20036;-73
2021/12/27 14:06:43;;;;;;;2.95;2.28;;;11.70;99.90;;;;;;5033200;28;20504;-74
2021/12/27 14:09:47;;;;;;;7.43;3.75;;;11.70;99.90;;;;;;5032758;28;20044;-73
2021/12/27 14:12:58;;;;;;;6.55;4.03;;;11.60;99.90;;;;;;5033064;28;20404;-73
2021/12/27 14:16:30;;;;;;;10.45;5.25;;;11.50;99.90;;;;;;5032116;28;20044;-73
2021/12/27 14:19:34;;;;;;;8.13;5.50;;;11.40;99.90;;;;;;5031612;28;20048;-73
2021/12/27 14:22:45;;;;;;;5.00;3.47;;;11.40;99.90;;;;;;5032895;28;20451;-73
2021/12/27 14:25:51;;;;;;;5.43;3.05;;;11.40;99.90;;;;;;5033118;28;20044;-73
2021/12/27 14:29:19;;;;;;;8.50;3.95;;;11.40;99.90;;;;;;5032478;28;20064;-73
2021/12/27 14:32:23;;;;;;;6.45;3.17;;;11.40;99.90;;;;;;5032895;28;20040;-73
2021/12/27 14:35:40;;;;;;;6.75;3.20;;;11.40;99.90;;;;;;5032673;28;20040;-74
2021/12/27 14:38:44;;;;;;;7.65;3.22;;;11.40;99.90;;;;;;5032240;28;20052;-73
2021/12/27 14:41:48;;;;;;;4.35;2.75;;;11.40;99.90;;;;;;5031839;28;20044;-73
2021/12/27 14:44:54;;;;;;;8.45;3.90;;;11.50;99.90;;;;;;5032777;28;20040;-73
2021/12/27 14:48:00;;;;;;;21.25;11.50;;;11.50;99.90;;;;;;5031607;28;20057;-73
2021/12/27 14:51:04;;;;;;;15.73;10.55;;;11.50;99.90;;;;;;5032554;28;20052;-73
2021/12/27 14:54:08;;;;;;;6.07;4.07;;;11.50;99.90;;;;;;5032381;28;20049;-73
2021/12/27 14:57:13;;;;;;;19.65;16.00;;;11.50;99.90;;;;;;5032077;28;20052;-73
2021/12/27 15:00:30;;;;;;;10.45;6.57;;;11.50;99.90;;;;;;5032175;28;20064;-73
2021/12/27 15:03:36;;;;;;;5.30;3.60;;;11.50;99.90;;;;;;5032669;28;20033;-74
2021/12/27 15:06:41;;;;;;;8.25;4.60;;;11.50;99.90;;;;;;5032350;28;20491;-73
2021/12/27 15:09:44;;;;;;;13.48;10.50;;;11.40;99.90;;;;;;5031917;28;20052;-73
2021/12/27 15:12:48;;;;;;;8.85;4.20;;;11.50;99.90;;;;;;5031454;28;20496;-74
2021/12/27 15:15:53;;;;;;;9.32;6.20;;;11.60;99.90;;;;;;5032063;28;20041;-73
2021/12/27 15:18:57;;;;;;;4.97;3.10;;;11.60;99.90;;;;;;5031503;28;20048;-73
2021/12/27 15:22:01;;;;;;;8.07;4.55;;;11.60;99.90;;;;;;5032310;28;20048;-73
2021/12/27 15:25:05;;;;;;;8.32;3.38;;;11.50;99.90;;;;;;5032167;28;20064;-73
2021/12/27 15:28:09;;;;;;;6.60;3.60;;;11.50;99.90;;;;;;5031346;28;20048;-73
2021/12/27 15:31:15;;;;;;;9.68;5.22;;;11.40;99.90;;;;;;5030918;28;20052;-73
2021/12/27 15:34:19;;;;;;;24.10;11.60;;;11.30;99.90;;;;;;5031089;28;20532;-73
2021/12/27 15:37:23;;;;;;;21.92;10.48;;;11.30;99.90;;;;;;5031455;28;20051;-73
2021/12/27 15:40:27;;;;;;;17.65;9.05;;;11.20;99.90;;;;;;5031695;28;20045;-73
2021/12/27 15:43:32;;;;;;;27.70;15.38;;;11.20;99.90;;;;;;5031397;28;20052;-73
2021/12/27 15:46:36;;;;;;;11.30;6.22;;;11.10;99.90;;;;;;5031453;28;20045;-73
2021/12/27 15:49:41;;;;;;;6.63;4.43;;;11.20;99.90;;;;;;5031012;28;20397;-73
2021/12/27 15:52:45;;;;;;;6.43;4.07;;;11.10;99.90;;;;;;5031165;28;20516;-74
2021/12/27 15:55:50;;;;;;;9.93;5.50;;;11.10;99.90;;;;;;5031540;28;20503;-73
2021/12/27 15:58:54;;;;;;;9.55;4.57;;;11.20;99.90;;;;;;5030895;28;20052;-73